Granite, Oklahoma
Current Conditions -  °F | °C
As of 6:15 PM on Thursday 27 Nov 2014 (Local Time) from KAXS Reporting Station
Clear Clear  
Wind Chill: 45°   Ceiling: Unl
Heat Index: 49°   Visibility: 10mi
Dew Point: 29°   Wind: 9mph
Humidity: 46%   Direction: 170°S
Pressure: 30.34"   Gusts: NA
Location:  34.96°N, 99.38°W
Report Text: KAXS 280015Z AUTO 17008KT 10SM CLR 09/M02 A3034 RMK AO2 T00941016
Loading
Personal Weather Stations






























Interactive Weather Map New forecast layout! Learn more

10-Day Weather Forecast

Advertisements
Track Severe Weather on mobile